Terminal Aerodrome Forecast
Issued by NWS

Home | Current Version | Previous Version | Text Only | Print | Product List | Glossary Off
Versions: 1 2 3 4 5 6 7 8 9 10 11 12 13 14 15 16

697
FTUS42 KMHX 242321
TAFOAJ
TAF
KOAJ 242321Z 2500/2524 06005KT P6SM BKN250
     FM251200 03007KT P6SM BKN008
     FM251600 03010KT P6SM BKN015
     FM252000 03010KT P6SM BKN025
      AMD LTD TO CLD VIS AND WIND=

USA.gov is the U.S. government's official web portal to all federal, state and local government web resources and services.